Time,TemperatureF,DewpointF,PressureIn,WindDirection,WindDirectionDegrees,WindSpeedMPH,WindSpeedGustMPH,Humidity,HourlyPrecipIn,Conditions,Clouds,dailyrainin,SoftwareType,DateUTC
2013-05-29 00:01:00,61.7,59.4,29.99,SSW,210,0.0,0.0,92,0.00,,---,0.00,VWS V14.01,2013-05-29 04:01:00,
2013-05-29 00:06:00,61.6,59.3,29.99,SSW,210,0.0,0.0,92,0.00,,---,0.00,VWS V14.01,2013-05-29 04:06:00,
2013-05-29 00:11:00,61.5,59.2,30.00,SSW,210,0.0,0.0,92,0.00,,---,0.00,VWS V14.01,2013-05-29 04:11:00,
2013-05-29 00:16:00,61.4,59.1,30.00,SSW,210,0.0,0.0,92,0.00,,---,0.00,VWS V14.01,2013-05-29 04:16:00,
2013-05-29 00:21:00,61.3,59.0,30.00,SSW,210,0.0,0.0,92,0.00,,---,0.00,VWS V14.01,2013-05-29 04:21:00,
2013-05-29 00:26:00,61.3,59.0,30.00,SSW,210,0.0,0.0,92,0.00,,---,0.00,VWS V14.01,2013-05-29 04:26:00,
2013-05-29 00:31:00,61.2,58.9,30.00,SSW,210,0.0,0.0,92,0.00,,---,0.00,VWS V14.01,2013-05-29 04:31:00,
2013-05-29 00:36:00,61.1,58.8,30.00,SSW,210,0.0,0.0,92,0.00,,---,0.00,VWS V14.01,2013-05-29 04:36:00,
2013-05-29 00:41:00,61.1,58.8,30.00,SSW,210,0.0,0.0,92,0.00,,---,0.00,VWS V14.01,2013-05-29 04:41:00,
2013-05-29 00:46:00,61.0,58.7,30.00,SSW,210,0.0,0.0,92,0.00,,---,0.00,VWS V14.01,2013-05-29 04:46:00,
2013-05-29 00:51:00,60.9,58.6,30.00,SSW,210,0.0,0.0,92,0.00,,---,0.00,VWS V14.01,2013-05-29 04:51:00,
2013-05-29 00:56:00,60.9,58.9,30.00,SSW,210,0.0,0.0,93,0.00,,---,0.00,VWS V14.01,2013-05-29 04:56:00,
2013-05-29 01:01:00,60.8,58.8,30.00,SSW,210,0.0,0.0,93,0.00,,---,0.00,VWS V14.01,2013-05-29 05:01:00,
2013-05-29 01:06:00,60.7,58.7,30.00,SSW,210,0.0,0.0,93,0.00,,---,0.00,VWS V14.01,2013-05-29 05:06:00,
2013-05-29 01:11:00,60.6,58.6,30.00,SSW,210,0.0,0.0,93,0.00,,---,0.00,VWS V14.01,2013-05-29 05:11:00,
2013-05-29 01:16:00,60.5,58.5,30.00,SSW,210,0.0,0.0,93,0.00,,---,0.00,VWS V14.01,2013-05-29 05:16:00,
2013-05-29 01:21:00,60.5,58.5,30.00,SSW,210,0.0,0.0,93,0.00,,---,0.00,VWS V14.01,2013-05-29 05:21:00,
2013-05-29 01:26:00,60.4,58.4,30.00,SSW,210,0.0,0.0,93,0.00,,---,0.00,VWS V14.01,2013-05-29 05:26:00,
2013-05-29 01:31:00,60.3,58.3,30.00,SSW,210,0.0,0.0,93,0.00,,---,0.00,VWS V14.01,2013-05-29 05:31:00,
2013-05-29 01:36:00,60.3,58.3,30.00,SSW,210,0.0,0.0,93,0.00,,---,0.00,VWS V14.01,2013-05-29 05:36:00,
2013-05-29 01:41:00,60.2,58.2,30.00,SSW,210,0.0,0.0,93,0.00,,---,0.00,VWS V14.01,2013-05-29 05:41:00,
2013-05-29 01:46:00,60.1,58.1,30.00,SSW,210,0.0,0.0,93,0.00,,---,0.00,VWS V14.01,2013-05-29 05:46:00,
2013-05-29 01:51:00,60.1,58.1,30.00,SSW,210,0.0,0.0,93,0.00,,---,0.00,VWS V14.01,2013-05-29 05:51:00,
2013-05-29 01:56:00,60.0,58.0,30.01,SSW,210,0.0,0.0,93,0.00,,---,0.00,VWS V14.01,2013-05-29 05:56:00,
2013-05-29 02:01:00,60.0,58.0,30.01,SSW,210,0.0,0.0,93,0.00,,---,0.00,VWS V14.01,2013-05-29 06:01:00,
2013-05-29 02:06:00,59.9,58.2,30.00,SSW,210,0.0,0.0,94,0.00,,---,0.00,VWS V14.01,2013-05-29 06:06:00,
2013-05-29 02:11:00,59.8,57.8,30.01,SSW,210,0.0,0.0,93,0.00,,---,0.00,VWS V14.01,2013-05-29 06:11:00,
2013-05-29 02:16:00,59.8,57.8,30.01,SSW,210,0.0,0.0,93,0.00,,---,0.00,VWS V14.01,2013-05-29 06:16:00,
2013-05-29 02:21:00,59.7,58.0,30.01,SSW,210,0.0,0.0,94,0.00,,---,0.00,VWS V14.01,2013-05-29 06:21:00,
2013-05-29 02:26:00,59.7,58.0,30.01,SSW,210,0.0,0.0,94,0.00,,---,0.00,VWS V14.01,2013-05-29 06:26:00,
2013-05-29 02:31:00,59.7,58.0,30.01,SSW,210,0.0,0.0,94,0.00,,---,0.00,VWS V14.01,2013-05-29 06:31:00,
2013-05-29 02:36:00,59.6,57.9,30.01,SSW,210,0.0,0.0,94,0.00,,---,0.00,VWS V14.01,2013-05-29 06:36:00,
2013-05-29 02:41:00,59.7,58.0,30.00,SSW,210,0.0,0.0,94,0.00,,---,0.00,VWS V14.01,2013-05-29 06:41:00,
2013-05-29 02:46:00,59.8,58.1,30.00,SSW,210,0.0,0.0,94,0.00,,---,0.00,VWS V14.01,2013-05-29 06:46:00,
2013-05-29 02:51:00,60.1,58.7,30.00,West,264,0.0,2.0,95,0.00,,---,0.00,VWS V14.01,2013-05-29 06:51:00,
2013-05-29 02:56:00,60.3,58.9,30.00,West,264,0.0,0.0,95,0.00,,---,0.00,VWS V14.01,2013-05-29 06:56:00,
2013-05-29 03:01:00,60.5,59.1,30.00,West,264,0.0,1.0,95,0.00,,---,0.00,VWS V14.01,2013-05-29 07:01:00,
2013-05-29 03:06:00,60.8,59.4,30.00,West,264,0.0,1.0,95,0.00,,---,0.00,VWS V14.01,2013-05-29 07:06:00,
2013-05-29 03:11:00,61.0,59.6,30.00,West,263,0.0,0.0,95,0.00,,---,0.00,VWS V14.01,2013-05-29 07:11:00,
2013-05-29 03:16:00,61.2,59.8,30.00,West,263,0.0,1.0,95,0.00,,---,0.00,VWS V14.01,2013-05-29 07:16:00,
2013-05-29 03:21:00,61.4,60.0,30.00,West,263,0.0,0.0,95,0.00,,---,0.00,VWS V14.01,2013-05-29 07:21:00,
2013-05-29 03:26:00,61.5,60.1,30.00,West,263,0.0,0.0,95,0.00,,---,0.00,VWS V14.01,2013-05-29 07:26:00,
2013-05-29 03:31:00,61.7,60.3,30.00,West,263,0.0,0.0,95,0.00,,---,0.00,VWS V14.01,2013-05-29 07:31:00,
2013-05-29 03:36:00,61.8,60.7,30.00,West,263,0.0,1.0,96,0.00,,---,0.00,VWS V14.01,2013-05-29 07:36:00,
2013-05-29 03:41:00,61.9,60.8,30.00,West,263,0.0,1.0,96,0.00,,---,0.00,VWS V14.01,2013-05-29 07:41:00,
2013-05-29 03:46:00,62.0,60.6,30.00,West,263,0.0,0.0,95,0.00,,---,0.00,VWS V14.01,2013-05-29 07:46:00,
2013-05-29 03:51:00,62.1,61.0,29.99,South,181,0.0,2.0,96,0.00,,---,0.00,VWS V14.01,2013-05-29 07:51:00,
2013-05-29 03:56:00,62.2,60.8,30.00,South,181,0.0,0.0,95,0.00,,---,0.00,VWS V14.01,2013-05-29 07:56:00,
2013-05-29 04:01:00,62.3,60.8,29.99,South,181,0.0,0.0,95,0.00,,---,0.00,VWS V14.01,2013-05-29 08:01:00,
2013-05-29 04:06:00,62.2,60.8,29.99,South,181,0.0,0.0,95,0.00,,---,0.00,VWS V14.01,2013-05-29 08:06:00,
2013-05-29 04:11:00,62.2,60.8,30.00,NNE,13,0.0,2.0,95,0.00,,---,0.00,VWS V14.01,2013-05-29 08:11:00,
2013-05-29 04:16:00,62.2,60.8,30.00,NNE,13,0.0,0.0,95,0.00,,---,0.00,VWS V14.01,2013-05-29 08:16:00,
2013-05-29 04:21:00,62.1,60.7,30.00,NNE,13,0.0,0.0,95,0.00,,---,0.00,VWS V14.01,2013-05-29 08:21:00,
2013-05-29 04:26:00,62.1,60.7,30.00,NNE,13,0.0,0.0,95,0.00,,---,0.00,VWS V14.01,2013-05-29 08:26:00,
2013-05-29 04:31:00,62.0,60.6,30.00,NNE,13,0.0,0.0,95,0.00,,---,0.00,VWS V14.01,2013-05-29 08:31:00,
2013-05-29 04:36:00,61.9,60.5,30.00,NNE,13,0.0,0.0,95,0.00,,---,0.00,VWS V14.01,2013-05-29 08:36:00,
2013-05-29 04:41:00,61.9,60.5,30.00,NNW,348,0.0,2.0,95,0.00,,---,0.00,VWS V14.01,2013-05-29 08:41:00,
2013-05-29 04:46:00,61.8,60.4,30.00,NNW,348,0.0,0.0,95,0.00,,---,0.00,VWS V14.01,2013-05-29 08:46:00,
2013-05-29 04:51:00,61.8,60.4,30.00,North,350,0.0,0.0,95,0.00,,---,0.00,VWS V14.01,2013-05-29 08:51:00,
2013-05-29 04:56:00,61.7,60.5,30.00,North,350,0.0,0.0,96,0.00,,---,0.00,VWS V14.01,2013-05-29 08:56:00,
2013-05-29 05:01:00,61.7,60.5,30.01,North,350,0.0,1.0,96,0.00,,---,0.00,VWS V14.01,2013-05-29 09:01:00,
2013-05-29 05:06:00,61.6,60.5,30.01,North,350,0.0,0.0,96,0.00,,---,0.00,VWS V14.01,2013-05-29 09:06:00,
2013-05-29 05:11:00,61.5,60.1,30.01,North,350,0.0,0.0,95,0.00,,---,0.00,VWS V14.01,2013-05-29 09:11:00,
2013-05-29 05:16:00,61.5,60.1,30.01,North,350,0.0,0.0,95,0.00,,---,0.00,VWS V14.01,2013-05-29 09:16:00,
2013-05-29 05:21:00,61.4,60.0,30.01,North,350,0.0,0.0,95,0.00,,---,0.00,VWS V14.01,2013-05-29 09:21:00,
2013-05-29 05:26:00,61.3,59.9,30.01,North,350,0.0,0.0,95,0.00,,---,0.00,VWS V14.01,2013-05-29 09:26:00,
2013-05-29 05:31:00,61.2,59.8,30.01,North,350,0.0,0.0,95,0.00,,---,0.00,VWS V14.01,2013-05-29 09:31:00,
2013-05-29 05:36:00,61.1,59.7,30.01,North,350,0.0,0.0,95,0.00,,---,0.00,VWS V14.01,2013-05-29 09:36:00,
2013-05-29 05:41:00,60.9,59.5,30.01,North,350,0.0,0.0,95,0.00,,---,0.00,VWS V14.01,2013-05-29 09:41:00,
2013-05-29 05:46:00,60.8,59.4,30.02,North,350,0.0,0.0,95,0.00,,---,0.00,VWS V14.01,2013-05-29 09:46:00,
2013-05-29 05:51:00,60.7,59.3,30.02,North,350,0.0,0.0,95,0.00,,---,0.00,VWS V14.01,2013-05-29 09:51:00,
2013-05-29 05:56:00,60.6,59.2,30.02,North,350,0.0,0.0,95,0.00,,---,0.00,VWS V14.01,2013-05-29 09:56:00,
2013-05-29 06:01:00,60.4,59.0,30.02,North,350,0.0,0.0,95,0.00,,---,0.00,VWS V14.01,2013-05-29 10:01:00,
2013-05-29 06:06:00,60.3,58.9,30.02,North,350,0.0,0.0,95,0.00,,---,0.00,VWS V14.01,2013-05-29 10:06:00,
2013-05-29 06:11:00,60.2,58.8,30.02,North,350,0.0,0.0,95,0.00,,---,0.00,VWS V14.01,2013-05-29 10:11:00,
2013-05-29 06:16:00,60.2,58.8,30.02,North,350,0.0,0.0,95,0.00,,---,0.00,VWS V14.01,2013-05-29 10:16:00,
2013-05-29 06:21:00,60.2,58.8,30.03,North,350,0.0,0.0,95,0.00,,---,0.00,VWS V14.01,2013-05-29 10:21:00,
2013-05-29 06:26:00,60.1,58.7,30.03,North,350,0.0,0.0,95,0.00,,---,0.00,VWS V14.01,2013-05-29 10:26:00,
2013-05-29 06:31:00,60.0,58.6,30.03,North,350,0.0,0.0,95,0.00,,---,0.00,VWS V14.01,2013-05-29 10:31:00,
2013-05-29 06:36:00,60.0,58.6,30.03,North,350,0.0,0.0,95,0.00,,---,0.00,VWS V14.01,2013-05-29 10:36:00,
2013-05-29 06:41:00,60.0,58.6,30.03,North,350,0.0,0.0,95,0.00,,---,0.00,VWS V14.01,2013-05-29 10:41:00,
2013-05-29 06:46:00,60.0,58.6,30.04,North,350,0.0,0.0,95,0.00,,---,0.00,VWS V14.01,2013-05-29 10:46:00,
2013-05-29 06:51:00,60.0,58.9,30.04,North,350,0.0,0.0,96,0.00,,---,0.00,VWS V14.01,2013-05-29 10:51:00,
2013-05-29 06:56:00,60.0,58.9,30.04,North,350,0.0,0.0,96,0.00,,---,0.00,VWS V14.01,2013-05-29 10:56:00,
2013-05-29 07:01:00,60.0,58.9,30.05,North,350,0.0,0.0,96,0.00,,---,0.00,VWS V14.01,2013-05-29 11:01:00,
2013-05-29 07:06:00,60.1,59.0,30.05,North,350,0.0,0.0,96,0.00,,---,0.00,VWS V14.01,2013-05-29 11:06:00,
2013-05-29 07:11:00,60.2,59.1,30.05,North,350,0.0,0.0,96,0.00,,---,0.00,VWS V14.01,2013-05-29 11:11:00,
2013-05-29 07:16:00,60.3,59.2,30.06,North,350,0.0,0.0,96,0.00,,---,0.00,VWS V14.01,2013-05-29 11:16:00,
2013-05-29 07:21:00,60.4,59.3,30.06,North,350,0.0,0.0,96,0.00,,---,0.00,VWS V14.01,2013-05-29 11:21:00,
2013-05-29 07:26:00,60.6,59.5,30.06,North,350,0.0,0.0,96,0.00,,---,0.00,VWS V14.01,2013-05-29 11:26:00,
2013-05-29 07:31:00,60.9,59.8,30.06,North,350,0.0,1.0,96,0.00,,---,0.00,VWS V14.01,2013-05-29 11:31:00,
2013-05-29 07:36:00,61.2,60.3,30.05,North,350,0.0,0.0,97,0.00,,---,0.00,VWS V14.01,2013-05-29 11:36:00,
2013-05-29 07:41:00,61.6,60.7,30.05,SSW,202,0.0,1.0,97,0.00,,---,0.00,VWS V14.01,2013-05-29 11:41:00,
2013-05-29 07:46:00,62.0,61.1,30.05,SSE,159,0.0,0.0,97,0.00,,---,0.00,VWS V14.01,2013-05-29 11:46:00,
2013-05-29 07:51:00,62.4,61.5,30.05,SSE,155,3.0,3.0,97,0.00,,---,0.00,VWS V14.01,2013-05-29 11:51:00,
2013-05-29 07:56:00,62.7,61.8,30.05,South,189,0.0,1.0,97,0.00,,---,0.00,VWS V14.01,2013-05-29 11:56:00,
2013-05-29 08:01:00,63.1,62.2,30.05,South,187,0.0,0.0,97,0.00,,---,0.00,VWS V14.01,2013-05-29 12:01:00,
2013-05-29 08:06:00,63.4,62.5,30.05,SSW,196,0.0,1.0,97,0.00,,---,0.00,VWS V14.01,2013-05-29 12:06:00,
2013-05-29 08:11:00,63.8,62.9,30.05,South,179,0.0,3.0,97,0.00,,---,0.00,VWS V14.01,2013-05-29 12:11:00,
2013-05-29 08:16:00,64.1,63.2,30.05,South,171,0.0,2.0,97,0.00,,---,0.00,VWS V14.01,2013-05-29 12:16:00,
2013-05-29 08:21:00,64.4,63.5,30.05,SSW,213,0.0,4.0,97,0.00,,---,0.00,VWS V14.01,2013-05-29 12:21:00,
2013-05-29 08:26:00,64.8,63.9,30.04,South,175,0.0,4.0,97,0.00,,---,0.00,VWS V14.01,2013-05-29 12:26:00,
2013-05-29 08:31:00,65.2,64.3,30.05,SSE,148,0.0,2.0,97,0.00,,---,0.00,VWS V14.01,2013-05-29 12:31:00,
2013-05-29 08:36:00,65.7,64.8,30.05,SSW,197,0.0,4.0,97,0.00,,---,0.00,VWS V14.01,2013-05-29 12:36:00,
2013-05-29 08:41:00,66.1,64.9,30.05,East,91,0.0,9.0,96,0.00,,---,0.00,VWS V14.01,2013-05-29 12:41:00,
2013-05-29 08:46:00,66.6,65.4,30.05,SE,134,2.0,2.0,96,0.00,,---,0.00,VWS V14.01,2013-05-29 12:46:00,
2013-05-29 08:51:00,67.0,65.8,30.05,West,265,5.0,5.0,96,0.00,,---,0.00,VWS V14.01,2013-05-29 12:51:00,
2013-05-29 08:56:00,67.3,65.8,30.06,East,100,0.0,1.0,95,0.00,,---,0.00,VWS V14.01,2013-05-29 12:56:00,
2013-05-29 09:01:00,67.6,65.8,30.06,North,355,0.0,2.0,94,0.00,,---,0.00,VWS V14.01,2013-05-29 13:01:00,
2013-05-29 09:06:00,67.9,65.8,30.06,ESE,110,0.0,1.0,93,0.00,,---,0.00,VWS V14.01,2013-05-29 13:06:00,
2013-05-29 09:11:00,68.3,66.2,30.06,SSW,192,0.0,4.0,93,0.00,,---,0.00,VWS V14.01,2013-05-29 13:11:00,
2013-05-29 09:16:00,68.6,66.2,30.06,NW,324,0.0,3.0,92,0.00,,---,0.00,VWS V14.01,2013-05-29 13:16:00,
2013-05-29 09:21:00,68.9,65.8,30.06,SSE,165,5.0,5.0,90,0.00,,---,0.00,VWS V14.01,2013-05-29 13:21:00,
2013-05-29 09:26:00,69.3,65.9,30.06,SSE,166,1.0,4.0,89,0.00,,---,0.00,VWS V14.01,2013-05-29 13:26:00,
2013-05-29 09:31:00,69.9,65.9,30.06,ESE,113,1.0,4.0,87,0.00,,---,0.00,VWS V14.01,2013-05-29 13:31:00,
2013-05-29 09:36:00,70.7,66.7,30.06,SSW,193,0.0,5.0,87,0.00,,---,0.00,VWS V14.01,2013-05-29 13:36:00,
2013-05-29 09:41:00,71.3,66.6,30.06,SE,128,2.0,10.0,85,0.00,,---,0.00,VWS V14.01,2013-05-29 13:41:00,
2013-05-29 09:46:00,72.1,66.7,30.06,South,172,2.0,7.0,83,0.00,,---,0.00,VWS V14.01,2013-05-29 13:46:00,
2013-05-29 09:51:00,73.2,67.0,30.06,WNW,299,2.0,5.0,81,0.00,,---,0.00,VWS V14.01,2013-05-29 13:51:00,
2013-05-29 09:56:00,73.9,66.6,30.06,ENE,67,1.0,6.0,78,0.00,,---,0.00,VWS V14.01,2013-05-29 13:56:00,
2013-05-29 10:01:00,74.6,66.9,30.07,SSW,192,1.0,7.0,77,0.00,,---,0.00,VWS V14.01,2013-05-29 14:01:00,
2013-05-29 10:06:00,75.3,67.6,30.06,North,355,2.0,3.0,77,0.00,,---,0.00,VWS V14.01,2013-05-29 14:06:00,
2013-05-29 10:11:00,75.8,67.3,30.06,NW,316,0.0,5.0,75,0.00,,---,0.00,VWS V14.01,2013-05-29 14:11:00,
2013-05-29 10:16:00,76.4,67.1,30.06,WSW,252,0.0,3.0,73,0.00,,---,0.00,VWS V14.01,2013-05-29 14:16:00,
2013-05-29 10:21:00,76.8,67.1,30.06,South,188,0.0,6.0,72,0.00,,---,0.00,VWS V14.01,2013-05-29 14:21:00,
2013-05-29 10:26:00,77.1,67.0,30.06,South,186,0.0,5.0,71,0.00,,---,0.00,VWS V14.01,2013-05-29 14:26:00,
2013-05-29 10:31:00,77.5,67.8,30.06,North,360,1.0,3.0,72,0.00,,---,0.00,VWS V14.01,2013-05-29 14:31:00,
2013-05-29 10:36:00,77.7,67.1,30.06,SSW,198,3.0,7.0,70,0.00,,---,0.00,VWS V14.01,2013-05-29 14:36:00,
2013-05-29 10:41:00,77.9,66.9,30.05,ESE,103,1.0,11.0,69,0.00,,---,0.00,VWS V14.01,2013-05-29 14:41:00,
2013-05-29 10:46:00,78.2,68.0,30.05,SSW,209,1.0,2.0,71,0.00,,---,0.00,VWS V14.01,2013-05-29 14:46:00,
2013-05-29 10:51:00,78.5,67.5,30.05,South,182,2.0,6.0,69,0.00,,---,0.00,VWS V14.01,2013-05-29 14:51:00,
2013-05-29 10:56:00,78.9,68.3,30.05,East,92,1.0,2.0,70,0.00,,---,0.00,VWS V14.01,2013-05-29 14:56:00,
2013-05-29 11:01:00,79.2,67.7,30.05,SSW,205,1.0,7.0,68,0.00,,---,0.00,VWS V14.01,2013-05-29 15:01:00,
2013-05-29 11:06:00,79.5,68.0,30.05,SSW,200,0.0,6.0,68,0.00,,---,0.00,VWS V14.01,2013-05-29 15:06:00,
2013-05-29 11:11:00,79.8,67.9,30.06,SSW,212,2.0,9.0,67,0.00,,---,0.00,VWS V14.01,2013-05-29 15:11:00,
2013-05-29 11:16:00,80.0,68.1,30.05,SSE,148,2.0,12.0,67,0.00,,---,0.00,VWS V14.01,2013-05-29 15:16:00,
2013-05-29 11:21:00,80.0,67.2,30.06,SSE,150,3.0,6.0,65,0.00,,---,0.00,VWS V14.01,2013-05-29 15:21:00,
2013-05-29 11:26:00,80.2,68.7,30.05,SE,139,3.0,11.0,68,0.00,,---,0.00,VWS V14.01,2013-05-29 15:26:00,
2013-05-29 11:31:00,80.4,68.4,30.06,NW,321,1.0,7.0,67,0.00,,---,0.00,VWS V14.01,2013-05-29 15:31:00,
2013-05-29 11:36:00,80.6,68.2,30.06,SSW,196,0.0,3.0,66,0.00,,---,0.00,VWS V14.01,2013-05-29 15:36:00,
2013-05-29 11:41:00,80.7,67.4,30.06,SSW,200,0.0,4.0,64,0.00,,---,0.00,VWS V14.01,2013-05-29 15:41:00,
2013-05-29 11:46:00,80.7,67.8,30.06,ENE,67,1.0,6.0,65,0.00,,---,0.00,VWS V14.01,2013-05-29 15:46:00,
2013-05-29 11:51:00,80.8,67.5,30.06,North,360,3.0,5.0,64,0.00,,---,0.00,VWS V14.01,2013-05-29 15:51:00,
2013-05-29 11:56:00,81.0,68.1,30.06,South,171,1.0,3.0,65,0.00,,---,0.00,VWS V14.01,2013-05-29 15:56:00,
2013-05-29 12:01:00,81.1,68.2,30.06,SSE,159,1.0,4.0,65,0.00,,---,0.00,VWS V14.01,2013-05-29 16:01:00,
2013-05-29 12:06:00,81.1,66.9,30.06,West,263,1.0,4.0,62,0.00,,---,0.00,VWS V14.01,2013-05-29 16:06:00,
2013-05-29 12:11:00,81.1,66.9,30.06,East,80,1.0,6.0,62,0.00,,---,0.00,VWS V14.01,2013-05-29 16:11:00,
2013-05-29 12:16:00,81.1,65.9,30.06,South,170,0.0,4.0,60,0.00,,---,0.00,VWS V14.01,2013-05-29 16:16:00,
2013-05-29 12:21:00,81.2,66.9,30.06,SSE,150,5.0,5.0,62,0.00,,---,0.00,VWS V14.01,2013-05-29 16:21:00,
2013-05-29 12:26:00,81.2,66.0,30.06,ESE,121,3.0,5.0,60,0.00,,---,0.00,VWS V14.01,2013-05-29 16:26:00,
2013-05-29 12:31:00,81.2,67.4,30.06,ESE,121,2.0,4.0,63,0.00,,---,0.00,VWS V14.01,2013-05-29 16:31:00,
2013-05-29 12:36:00,81.2,68.8,30.06,South,178,1.0,2.0,66,0.00,,---,0.00,VWS V14.01,2013-05-29 16:36:00,
2013-05-29 12:41:00,81.2,66.5,30.06,West,265,0.0,4.0,61,0.00,,---,0.00,VWS V14.01,2013-05-29 16:41:00,
2013-05-29 12:46:00,81.2,66.0,30.06,South,184,0.0,7.0,60,0.00,,---,0.00,VWS V14.01,2013-05-29 16:46:00,
2013-05-29 12:51:00,81.2,66.5,30.06,SSE,155,1.0,5.0,61,0.00,,---,0.00,VWS V14.01,2013-05-29 16:51:00,
2013-05-29 12:56:00,81.4,68.1,30.06,SSE,160,1.0,1.0,64,0.00,,---,0.00,VWS V14.01,2013-05-29 16:56:00,
2013-05-29 13:01:00,81.5,67.7,30.05,WNW,298,1.0,5.0,63,0.00,,---,0.00,VWS V14.01,2013-05-29 17:01:00,
2013-05-29 13:06:00,81.9,68.5,30.05,South,184,0.0,4.0,64,0.00,,---,0.00,VWS V14.01,2013-05-29 17:06:00,
2013-05-29 13:11:00,82.4,69.9,30.05,West,273,0.0,4.0,66,0.00,,---,0.00,VWS V14.01,2013-05-29 17:11:00,
2013-05-29 13:16:00,83.0,69.1,30.05,SE,130,3.0,5.0,63,0.00,,---,0.00,VWS V14.01,2013-05-29 17:16:00,
2013-05-29 13:21:00,83.7,69.3,30.05,WNW,295,2.0,5.0,62,0.00,,---,0.00,VWS V14.01,2013-05-29 17:21:00,
2013-05-29 13:26:00,84.0,68.1,30.05,SSE,150,2.0,5.0,59,0.00,,---,0.00,VWS V14.01,2013-05-29 17:26:00,
2013-05-29 13:31:00,84.1,68.2,30.05,SE,136,9.0,9.0,59,0.00,,---,0.00,VWS V14.01,2013-05-29 17:31:00,
2013-05-29 13:36:00,84.3,67.9,30.05,SSW,200,2.0,3.0,58,0.00,,---,0.00,VWS V14.01,2013-05-29 17:36:00,
2013-05-29 13:41:00,84.6,69.2,30.05,WSW,242,0.0,3.0,60,0.00,,---,0.00,VWS V14.01,2013-05-29 17:41:00,
2013-05-29 13:46:00,85.0,68.1,30.05,West,271,0.0,7.0,57,0.00,,---,0.00,VWS V14.01,2013-05-29 17:46:00,
2013-05-29 13:51:00,85.4,70.4,30.04,West,274,0.0,3.0,61,0.00,,---,0.00,VWS V14.01,2013-05-29 17:51:00,
2013-05-29 13:56:00,85.5,68.5,30.04,SSE,155,8.0,8.0,57,0.00,,---,0.00,VWS V14.01,2013-05-29 17:56:00,
2013-05-29 14:01:00,85.8,69.8,30.04,WNW,300,0.0,8.0,59,0.00,,---,0.00,VWS V14.01,2013-05-29 18:01:00,
2013-05-29 14:06:00,86.2,70.7,30.04,NE,49,2.0,3.0,60,0.00,,---,0.00,VWS V14.01,2013-05-29 18:06:00,
2013-05-29 14:11:00,86.4,67.8,30.04,ESE,123,0.0,9.0,54,0.00,,---,0.00,VWS V14.01,2013-05-29 18:11:00,
2013-05-29 14:16:00,86.6,69.6,30.04,East,98,1.0,8.0,57,0.00,,---,0.00,VWS V14.01,2013-05-29 18:16:00,
2013-05-29 14:21:00,86.9,69.3,30.04,SE,128,6.0,10.0,56,0.00,,---,0.00,VWS V14.01,2013-05-29 18:21:00,
2013-05-29 14:26:00,86.8,68.7,30.04,South,175,2.0,6.0,55,0.00,,---,0.00,VWS V14.01,2013-05-29 18:26:00,
2013-05-29 14:31:00,86.6,68.0,30.04,SE,141,0.0,6.0,54,0.00,,---,0.00,VWS V14.01,2013-05-29 18:31:00,
2013-05-29 14:36:00,86.5,68.4,30.03,SSE,147,11.0,11.0,55,0.00,,---,0.00,VWS V14.01,2013-05-29 18:36:00,
2013-05-29 14:41:00,86.5,69.0,30.03,North,350,0.0,3.0,56,0.00,,---,0.00,VWS V14.01,2013-05-29 18:41:00,
2013-05-29 14:46:00,86.5,68.4,30.03,SSE,155,3.0,5.0,55,0.00,,---,0.00,VWS V14.01,2013-05-29 18:46:00,
2013-05-29 14:51:00,86.5,68.4,30.03,South,175,1.0,4.0,55,0.00,,---,0.00,VWS V14.01,2013-05-29 18:51:00,
2013-05-29 14:56:00,86.6,68.0,30.03,SE,131,2.0,9.0,54,0.00,,---,0.00,VWS V14.01,2013-05-29 18:56:00,
2013-05-29 15:01:00,86.9,72.3,30.03,East,82,1.0,4.0,62,0.00,,---,0.00,VWS V14.01,2013-05-29 19:01:00,
2013-05-29 15:06:00,87.1,69.0,30.03,South,191,0.0,6.0,55,0.00,,---,0.00,VWS V14.01,2013-05-29 19:06:00,
2013-05-29 15:11:00,87.4,68.2,30.03,ESE,115,4.0,9.0,53,0.00,,---,0.00,VWS V14.01,2013-05-29 19:11:00,
2013-05-29 15:16:00,87.7,69.5,30.03,SE,131,3.0,4.0,55,0.00,,---,0.00,VWS V14.01,2013-05-29 19:16:00,
2013-05-29 15:21:00,87.6,68.4,30.03,SSE,148,3.0,9.0,53,0.00,,---,0.00,VWS V14.01,2013-05-29 19:21:00,
2013-05-29 15:26:00,87.5,69.9,30.03,ESE,109,3.0,4.0,56,0.00,,---,0.00,VWS V14.01,2013-05-29 19:26:00,
2013-05-29 15:31:00,87.5,68.3,30.03,SSE,153,4.0,5.0,53,0.00,,---,0.00,VWS V14.01,2013-05-29 19:31:00,
2013-05-29 15:36:00,87.6,67.2,30.03,ESE,117,2.0,9.0,51,0.00,,---,0.00,VWS V14.01,2013-05-29 19:36:00,
2013-05-29 15:41:00,87.6,67.8,30.03,ESE,107,1.0,4.0,52,0.00,,---,0.00,VWS V14.01,2013-05-29 19:41:00,
2013-05-29 15:46:00,87.6,68.4,30.03,WNW,287,1.0,6.0,53,0.00,,---,0.00,VWS V14.01,2013-05-29 19:46:00,
2013-05-29 15:51:00,87.6,70.0,30.04,SSW,198,0.0,6.0,56,0.00,,---,0.00,VWS V14.01,2013-05-29 19:51:00,
2013-05-29 15:56:00,87.6,69.4,30.04,South,175,0.0,4.0,55,0.00,,---,0.00,VWS V14.01,2013-05-29 19:56:00,
2013-05-29 16:01:00,87.8,69.1,30.04,WSW,248,3.0,3.0,54,0.00,,---,0.00,VWS V14.01,2013-05-29 20:01:00,
2013-05-29 16:06:00,87.7,68.5,30.04,East,96,1.0,6.0,53,0.00,,---,0.00,VWS V14.01,2013-05-29 20:06:00,
2013-05-29 16:11:00,87.5,67.2,30.04,SW,223,0.0,5.0,51,0.00,,---,0.00,VWS V14.01,2013-05-29 20:11:00,
2013-05-29 16:16:00,87.6,67.8,30.03,ESE,111,5.0,7.0,52,0.00,,---,0.00,VWS V14.01,2013-05-29 20:16:00,
2013-05-29 16:21:00,87.5,67.2,30.03,East,84,3.0,5.0,51,0.00,,---,0.00,VWS V14.01,2013-05-29 20:21:00,
2013-05-29 16:26:00,87.4,68.2,30.03,NNE,26,0.0,3.0,53,0.00,,---,0.00,VWS V14.01,2013-05-29 20:26:00,
2013-05-29 16:31:00,87.3,69.2,30.03,South,175,1.0,3.0,55,0.00,,---,0.00,VWS V14.01,2013-05-29 20:31:00,
2013-05-29 16:36:00,87.3,68.1,30.02,North,349,0.0,5.0,53,0.00,,---,0.00,VWS V14.01,2013-05-29 20:36:00,
2013-05-29 16:41:00,87.3,67.0,30.03,SSE,155,6.0,12.0,51,0.00,,---,0.00,VWS V14.01,2013-05-29 20:41:00,
2013-05-29 16:46:00,87.2,66.3,30.03,South,178,2.0,9.0,50,0.00,,---,0.00,VWS V14.01,2013-05-29 20:46:00,
2013-05-29 16:51:00,87.0,68.9,30.02,East,97,0.0,3.0,55,0.00,,---,0.00,VWS V14.01,2013-05-29 20:51:00,
2013-05-29 16:56:00,86.6,66.9,30.03,SSE,157,7.0,7.0,52,0.00,,---,0.00,VWS V14.01,2013-05-29 20:56:00,
2013-05-29 17:01:00,86.3,66.6,30.02,South,188,0.0,4.0,52,0.00,,---,0.00,VWS V14.01,2013-05-29 21:01:00,
2013-05-29 17:06:00,86.3,67.2,30.02,SSE,165,0.0,4.0,53,0.00,,---,0.00,VWS V14.01,2013-05-29 21:06:00,
2013-05-29 17:11:00,86.3,67.2,30.02,South,170,4.0,4.0,53,0.00,,---,0.00,VWS V14.01,2013-05-29 21:11:00,
2013-05-29 17:16:00,86.4,67.3,30.02,ESE,109,1.0,4.0,53,0.00,,---,0.00,VWS V14.01,2013-05-29 21:16:00,
2013-05-29 17:21:00,86.5,66.8,30.02,SSW,195,1.0,12.0,52,0.00,,---,0.00,VWS V14.01,2013-05-29 21:21:00,
2013-05-29 17:26:00,86.6,66.9,30.02,NNW,337,0.0,8.0,52,0.00,,---,0.00,VWS V14.01,2013-05-29 21:26:00,
2013-05-29 17:31:00,86.7,65.9,30.02,SSE,147,4.0,4.0,50,0.00,,---,0.00,VWS V14.01,2013-05-29 21:31:00,
2013-05-29 17:36:00,86.7,65.9,30.02,South,190,2.0,7.0,50,0.00,,---,0.00,VWS V14.01,2013-05-29 21:36:00,
2013-05-29 17:41:00,86.7,64.7,30.02,SW,218,2.0,6.0,48,0.00,,---,0.00,VWS V14.01,2013-05-29 21:41:00,
2013-05-29 17:46:00,86.6,65.8,30.02,NW,306,0.0,4.0,50,0.00,,---,0.00,VWS V14.01,2013-05-29 21:46:00,
2013-05-29 17:51:00,86.5,66.2,30.02,SSE,154,0.0,4.0,51,0.00,,---,0.00,VWS V14.01,2013-05-29 21:51:00,
2013-05-29 17:56:00,86.6,66.9,30.02,SW,233,0.0,1.0,52,0.00,,---,0.00,VWS V14.01,2013-05-29 21:56:00,
2013-05-29 18:01:00,86.5,65.7,30.02,West,272,0.0,3.0,50,0.00,,---,0.00,VWS V14.01,2013-05-29 22:01:00,
2013-05-29 18:06:00,86.4,67.3,30.02,West,269,0.0,2.0,53,0.00,,---,0.00,VWS V14.01,2013-05-29 22:06:00,
2013-05-29 18:11:00,86.2,65.4,30.02,South,177,0.0,3.0,50,0.00,,---,0.00,VWS V14.01,2013-05-29 22:11:00,
2013-05-29 18:16:00,86.0,65.2,30.02,SSE,151,0.0,6.0,50,0.00,,---,0.00,VWS V14.01,2013-05-29 22:16:00,
2013-05-29 18:21:00,85.9,65.1,30.03,SSE,154,0.0,5.0,50,0.00,,---,0.00,VWS V14.01,2013-05-29 22:21:00,
2013-05-29 18:26:00,85.7,64.9,30.03,SE,135,0.0,3.0,50,0.00,,---,0.00,VWS V14.01,2013-05-29 22:26:00,
2013-05-29 18:31:00,85.6,65.4,30.03,SE,126,0.0,4.0,51,0.00,,---,0.00,VWS V14.01,2013-05-29 22:31:00,
2013-05-29 18:36:00,85.5,65.9,30.03,SSE,157,4.0,4.0,52,0.00,,---,0.00,VWS V14.01,2013-05-29 22:36:00,
2013-05-29 18:41:00,85.2,65.1,30.03,South,190,0.0,4.0,51,0.00,,---,0.00,VWS V14.01,2013-05-29 22:41:00,
2013-05-29 18:46:00,85.0,65.4,30.02,NE,52,1.0,4.0,52,0.00,,---,0.00,VWS V14.01,2013-05-29 22:46:00,
2013-05-29 18:51:00,84.7,65.1,30.02,SSE,153,0.0,1.0,52,0.00,,---,0.00,VWS V14.01,2013-05-29 22:51:00,
2013-05-29 18:56:00,84.5,65.0,30.03,SSW,194,2.0,4.0,52,0.00,,---,0.00,VWS V14.01,2013-05-29 22:56:00,
2013-05-29 19:01:00,84.1,64.6,30.02,SE,126,2.0,4.0,52,0.00,,---,0.00,VWS V14.01,2013-05-29 23:01:00,
2013-05-29 19:06:00,83.6,64.1,30.02,SE,138,0.0,6.0,52,0.00,,---,0.00,VWS V14.01,2013-05-29 23:06:00,
2013-05-29 19:11:00,83.3,64.4,30.02,ENE,72,2.0,6.0,53,0.00,,---,0.00,VWS V14.01,2013-05-29 23:11:00,
2013-05-29 19:16:00,82.8,64.5,30.03,SE,135,1.0,2.0,54,0.00,,---,0.00,VWS V14.01,2013-05-29 23:16:00,
2013-05-29 19:21:00,82.3,64.0,30.03,South,180,1.0,3.0,54,0.00,,---,0.00,VWS V14.01,2013-05-29 23:21:00,
2013-05-29 19:26:00,81.9,63.6,30.03,SE,144,0.0,3.0,54,0.00,,---,0.00,VWS V14.01,2013-05-29 23:26:00,
2013-05-29 19:31:00,81.5,64.8,30.03,SSW,199,0.0,0.0,57,0.00,,---,0.00,VWS V14.01,2013-05-29 23:31:00,
2013-05-29 19:36:00,81.1,64.4,30.03,South,186,2.0,4.0,57,0.00,,---,0.00,VWS V14.01,2013-05-29 23:36:00,
2013-05-29 19:41:00,80.6,64.5,30.03,SSE,156,0.0,2.0,58,0.00,,---,0.00,VWS V14.01,2013-05-29 23:41:00,
2013-05-29 19:46:00,80.3,65.2,30.03,SSE,161,0.0,0.0,60,0.00,,---,0.00,VWS V14.01,2013-05-29 23:46:00,
2013-05-29 19:51:00,79.7,65.1,30.03,SSE,161,0.0,0.0,61,0.00,,---,0.00,VWS V14.01,2013-05-29 23:51:00,
2013-05-29 19:56:00,79.2,65.1,30.03,South,172,0.0,0.0,62,0.00,,---,0.00,VWS V14.01,2013-05-29 23:56:00,
2013-05-29 20:00:00,78.5,64.9,30.03,ESE,123,0.0,0.0,63,0.00,,---,0.00,VWS V14.01,2013-05-30 00:00:00,
2013-05-29 20:05:00,78.0,65.3,30.03,ESE,123,0.0,0.0,65,0.00,,---,0.00,VWS V14.01,2013-05-30 00:05:00,
2013-05-29 20:10:00,77.4,65.6,30.03,ESE,123,0.0,0.0,67,0.00,,---,0.00,VWS V14.01,2013-05-30 00:10:00,
2013-05-29 20:15:00,76.7,65.3,30.03,ESE,123,0.0,0.0,68,0.00,,---,0.00,VWS V14.01,2013-05-30 00:15:00,
2013-05-29 20:20:00,76.0,65.1,30.03,ESE,123,0.0,0.0,69,0.00,,---,0.00,VWS V14.01,2013-05-30 00:20:00,
2013-05-29 20:25:00,75.5,65.0,30.03,ESE,123,0.0,0.0,70,0.00,,---,0.00,VWS V14.01,2013-05-30 00:25:00,
2013-05-29 20:30:00,74.8,64.8,30.03,ESE,123,0.0,0.0,71,0.00,,---,0.00,VWS V14.01,2013-05-30 00:30:00,
2013-05-29 20:35:00,74.2,64.6,30.03,ESE,123,0.0,0.0,72,0.00,,---,0.00,VWS V14.01,2013-05-30 00:35:00,
2013-05-29 20:40:00,73.6,64.4,30.03,ESE,123,0.0,0.0,73,0.00,,---,0.00,VWS V14.01,2013-05-30 00:40:00,
2013-05-29 20:45:00,73.1,64.3,30.03,ESE,123,0.0,0.0,74,0.00,,---,0.00,VWS V14.01,2013-05-30 00:45:00,
2013-05-29 20:50:00,72.5,64.1,30.03,ESE,123,0.0,0.0,75,0.00,,---,0.00,VWS V14.01,2013-05-30 00:50:00,
2013-05-29 20:55:00,72.0,63.7,30.03,ESE,123,0.0,0.0,75,0.00,,---,0.00,VWS V14.01,2013-05-30 00:55:00,
2013-05-29 21:00:00,71.5,63.5,30.03,ESE,123,0.0,0.0,76,0.00,,---,0.00,VWS V14.01,2013-05-30 01:00:00,
2013-05-29 21:05:00,71.1,63.5,30.03,ESE,123,0.0,0.0,77,0.00,,---,0.00,VWS V14.01,2013-05-30 01:05:00,
2013-05-29 21:10:00,70.6,63.4,30.03,ESE,123,0.0,0.0,78,0.00,,---,0.00,VWS V14.01,2013-05-30 01:10:00,
2013-05-29 21:15:00,70.1,63.3,30.03,ESE,123,0.0,0.0,79,0.00,,---,0.00,VWS V14.01,2013-05-30 01:15:00,
2013-05-29 21:20:00,69.7,63.3,30.03,ESE,123,0.0,0.0,80,0.00,,---,0.00,VWS V14.01,2013-05-30 01:20:00,
2013-05-29 21:25:00,69.3,62.9,30.03,ESE,123,0.0,0.0,80,0.00,,---,0.00,VWS V14.01,2013-05-30 01:25:00,
2013-05-29 21:30:00,68.8,62.7,30.03,ESE,123,0.0,0.0,81,0.00,,---,0.00,VWS V14.01,2013-05-30 01:30:00,
2013-05-29 21:35:00,68.5,62.8,30.03,ESE,123,0.0,0.0,82,0.00,,---,0.00,VWS V14.01,2013-05-30 01:35:00,
2013-05-29 21:40:00,68.1,62.4,30.04,ESE,123,0.0,0.0,82,0.00,,---,0.00,VWS V14.01,2013-05-30 01:40:00,
2013-05-29 21:45:00,67.7,62.4,30.04,ESE,123,0.0,0.0,83,0.00,,---,0.00,VWS V14.01,2013-05-30 01:45:00,
2013-05-29 21:50:00,67.4,62.1,30.04,ESE,123,0.0,0.0,83,0.00,,---,0.00,VWS V14.01,2013-05-30 01:50:00,
2013-05-29 21:55:00,67.1,62.1,30.04,ESE,123,0.0,0.0,84,0.00,,---,0.00,VWS V14.01,2013-05-30 01:55:00,
2013-05-29 22:00:00,66.8,61.8,30.04,ESE,123,0.0,0.0,84,0.00,,---,0.00,VWS V14.01,2013-05-30 02:00:00,
2013-05-29 22:05:00,66.5,61.5,30.04,ESE,123,0.0,0.0,84,0.00,,---,0.00,VWS V14.01,2013-05-30 02:05:00,
2013-05-29 22:10:00,66.2,61.6,30.04,ESE,123,0.0,0.0,85,0.00,,---,0.00,VWS V14.01,2013-05-30 02:10:00,
2013-05-29 22:15:00,65.9,61.3,30.04,ESE,123,0.0,0.0,85,0.00,,---,0.00,VWS V14.01,2013-05-30 02:15:00,
2013-05-29 22:20:00,65.6,61.3,30.04,ESE,123,0.0,0.0,86,0.00,,---,0.00,VWS V14.01,2013-05-30 02:20:00,
2013-05-29 22:25:00,65.4,61.1,30.04,ESE,123,0.0,0.0,86,0.00,,---,0.00,VWS V14.01,2013-05-30 02:25:00,
2013-05-29 22:30:00,65.1,60.8,30.04,ESE,123,0.0,0.0,86,0.00,,---,0.00,VWS V14.01,2013-05-30 02:30:00,
2013-05-29 22:35:00,64.9,60.9,30.04,ESE,123,0.0,0.0,87,0.00,,---,0.00,VWS V14.01,2013-05-30 02:35:00,
2013-05-29 22:40:00,64.6,60.7,30.05,ESE,123,0.0,0.0,87,0.00,,---,0.00,VWS V14.01,2013-05-30 02:40:00,
2013-05-29 22:45:00,64.4,60.5,30.05,ESE,123,0.0,0.0,87,0.00,,---,0.00,VWS V14.01,2013-05-30 02:45:00,
2013-05-29 22:50:00,64.2,60.3,30.05,ESE,123,0.0,0.0,87,0.00,,---,0.00,VWS V14.01,2013-05-30 02:50:00,
2013-05-29 22:55:00,64.0,60.1,30.05,ESE,123,0.0,0.0,87,0.00,,---,0.00,VWS V14.01,2013-05-30 02:55:00,
2013-05-29 23:00:00,63.8,60.2,30.05,ESE,123,0.0,0.0,88,0.00,,---,0.00,VWS V14.01,2013-05-30 03:00:00,
2013-05-29 23:05:00,63.6,60.0,30.05,ESE,123,0.0,0.0,88,0.00,,---,0.00,VWS V14.01,2013-05-30 03:05:00,
2013-05-29 23:10:00,63.4,59.8,30.05,ESE,123,0.0,0.0,88,0.00,,---,0.00,VWS V14.01,2013-05-30 03:10:00,
2013-05-29 23:15:00,63.2,59.6,30.05,ESE,123,0.0,0.0,88,0.00,,---,0.00,VWS V14.01,2013-05-30 03:15:00,
2013-05-29 23:20:00,63.0,59.7,30.05,ESE,123,0.0,0.0,89,0.00,,---,0.00,VWS V14.01,2013-05-30 03:20:00,
2013-05-29 23:25:00,62.9,59.6,30.05,ESE,123,0.0,0.0,89,0.00,,---,0.00,VWS V14.01,2013-05-30 03:25:00,
2013-05-29 23:30:00,62.7,59.4,30.05,ESE,123,0.0,0.0,89,0.00,,---,0.00,VWS V14.01,2013-05-30 03:30:00,
2013-05-29 23:35:00,62.5,59.2,30.05,ESE,123,0.0,0.0,89,0.00,,---,0.00,VWS V14.01,2013-05-30 03:35:00,
2013-05-29 23:40:00,62.4,59.1,30.05,ESE,123,0.0,0.0,89,0.00,,---,0.00,VWS V14.01,2013-05-30 03:40:00,
2013-05-29 23:45:00,62.2,58.9,30.05,ESE,123,0.0,0.0,89,0.00,,---,0.00,VWS V14.01,2013-05-30 03:45:00,
2013-05-29 23:50:00,62.0,59.0,30.06,ESE,123,0.0,0.0,90,0.00,,---,0.00,VWS V14.01,2013-05-30 03:50:00,
2013-05-29 23:55:00,61.9,58.9,30.06,ESE,123,0.0,0.0,90,0.00,,---,0.00,VWS V14.01,2013-05-30 03:55:00,